createdAt,value
2022-08-12T00:01:15.226Z,1.50
2022-08-12T00:04:00.717Z,1.42
2022-08-12T00:06:48.975Z,1.58
2022-08-12T00:09:34.772Z,1.35
2022-08-12T00:12:21.521Z,1.10
2022-08-12T00:15:07.631Z,1.33
2022-08-12T00:17:54.114Z,1.25
2022-08-12T00:20:39.750Z,1.20
2022-08-12T00:23:25.380Z,1.30
2022-08-12T00:26:23.696Z,1.17
2022-08-12T00:29:12.750Z,1.30
2022-08-12T00:32:00.692Z,1.45
2022-08-12T00:34:51.763Z,1.27
2022-08-12T00:37:39.583Z,1.30
2022-08-12T00:40:28.182Z,1.23
2022-08-12T00:42:57.189Z,1.52
2022-08-12T00:45:25.025Z,1.30
2022-08-12T00:47:53.463Z,1.00
2022-08-12T00:50:22.896Z,1.17
2022-08-12T00:52:51.961Z,0.82
2022-08-12T00:55:19.849Z,1.20
2022-08-12T00:57:50.409Z,1.10
2022-08-12T01:00:19.307Z,1.17
2022-08-12T01:02:51.678Z,1.15
2022-08-12T01:05:42.585Z,1.10
2022-08-12T01:08:28.751Z,1.85
2022-08-12T01:11:15.761Z,1.27
2022-08-12T01:13:47.912Z,1.38
2022-08-12T01:16:17.516Z,0.88
2022-08-12T01:18:45.454Z,1.20
2022-08-12T01:21:26.628Z,1.17
2022-08-12T01:23:59.385Z,1.15
2022-08-12T01:26:47.572Z,1.40
2022-08-12T01:29:18.765Z,1.63
2022-08-12T01:31:50.080Z,1.30
2022-08-12T01:34:36.604Z,1.30
2022-08-12T01:37:05.738Z,1.15
2022-08-12T01:39:37.490Z,1.15
2022-08-12T01:42:21.239Z,0.98
2022-08-12T01:44:50.435Z,1.20
2022-08-12T01:47:54.274Z,1.75
2022-08-12T01:50:47.205Z,1.38
2022-08-12T01:53:16.169Z,1.20
2022-08-12T01:55:46.595Z,0.90
2022-08-12T01:58:26.440Z,1.23
2022-08-12T02:01:05.671Z,1.30
2022-08-12T02:04:28.684Z,1.38
2022-08-12T02:07:58.030Z,1.13
2022-08-12T02:10:54.550Z,1.10
2022-08-12T02:13:52.299Z,1.50
2022-08-12T02:16:58.858Z,1.17
2022-08-12T02:19:37.640Z,1.00
2022-08-12T02:22:27.644Z,1.45
2022-08-12T02:25:27.807Z,0.88
2022-08-12T02:27:56.205Z,0.80
2022-08-12T02:30:25.477Z,1.10
2022-08-12T02:33:04.659Z,1.40
2022-08-12T02:35:35.614Z,1.70
2022-08-12T02:38:11.038Z,1.05
2022-08-12T02:40:40.386Z,1.30
2022-08-12T02:43:28.800Z,0.90
2022-08-12T02:46:03.177Z,1.33
2022-08-12T02:48:35.794Z,1.00
2022-08-12T02:51:06.593Z,1.50
2022-08-12T02:53:35.853Z,1.50
2022-08-12T02:56:04.376Z,1.45
2022-08-12T02:58:33.660Z,1.33
2022-08-12T03:01:03.660Z,1.42
2022-08-12T03:03:33.965Z,1.90
2022-08-12T03:06:22.218Z,1.35
2022-08-12T03:08:53.889Z,1.30
2022-08-12T03:11:48.736Z,1.35
2022-08-12T03:14:18.625Z,1.40
2022-08-12T03:16:53.839Z,1.60
2022-08-12T03:19:21.506Z,1.60
2022-08-12T03:22:08.668Z,1.85
2022-08-12T03:24:39.261Z,1.55
2022-08-12T03:27:08.444Z,1.50
2022-08-12T03:29:50.001Z,1.30
2022-08-12T03:32:35.901Z,1.50
2022-08-12T03:35:07.898Z,1.73
2022-08-12T03:37:37.450Z,1.83
2022-08-12T03:40:05.067Z,1.60
2022-08-12T03:42:33.136Z,1.60
2022-08-12T03:45:35.085Z,1.50
2022-08-12T03:48:37.076Z,1.75
2022-08-12T03:51:23.800Z,1.45
2022-08-12T03:54:11.322Z,1.67
2022-08-12T03:56:58.085Z,1.17
2022-08-12T03:59:43.903Z,1.58
2022-08-12T04:02:17.165Z,2.00
2022-08-12T04:04:49.549Z,1.90
2022-08-12T04:07:17.105Z,2.13
2022-08-12T04:09:46.800Z,1.60
2022-08-12T04:12:33.230Z,1.65
2022-08-12T04:15:01.494Z,1.50
2022-08-12T04:17:29.132Z,1.67
2022-08-12T04:19:58.134Z,2.00
2022-08-12T04:22:30.515Z,1.77
2022-08-12T04:25:01.366Z,2.22
2022-08-12T04:27:32.290Z,2.20
2022-08-12T04:30:16.896Z,2.33
2022-08-12T04:32:50.532Z,1.95
2022-08-12T04:35:18.228Z,1.80
2022-08-12T04:37:59.002Z,1.98
2022-08-12T04:40:31.721Z,1.80
2022-08-12T04:43:01.348Z,2.10
2022-08-12T04:45:31.022Z,1.88
2022-08-12T04:47:58.390Z,1.73
2022-08-12T04:50:35.373Z,2.13
2022-08-12T04:53:08.345Z,1.90
2022-08-12T04:55:38.947Z,2.00
2022-08-12T04:58:07.363Z,1.85
2022-08-12T05:00:35.594Z,2.20
2022-08-12T05:03:02.980Z,1.75
2022-08-12T05:05:35.726Z,2.22
2022-08-12T05:08:04.069Z,2.22
2022-08-12T05:10:33.440Z,2.20
2022-08-12T05:13:07.987Z,2.17
2022-08-12T05:16:00.170Z,1.83
2022-08-12T05:18:29.415Z,2.20
2022-08-12T05:20:58.821Z,2.33
2022-08-12T05:23:26.754Z,2.58
2022-08-12T05:25:56.952Z,1.70
2022-08-12T05:28:27.057Z,3.15
2022-08-12T05:30:55.605Z,2.15
2022-08-12T05:33:26.638Z,2.95
2022-08-12T05:35:54.020Z,2.55
2022-08-12T05:38:39.907Z,2.42
2022-08-12T05:41:19.217Z,2.15
2022-08-12T05:43:55.511Z,1.88
2022-08-12T05:46:24.149Z,2.38
2022-08-12T05:48:54.811Z,2.00
2022-08-12T05:51:24.809Z,1.90
2022-08-12T05:54:05.923Z,2.15
2022-08-12T05:56:35.080Z,1.70
2022-08-12T05:59:07.576Z,1.92
2022-08-12T06:02:12.430Z,2.17
2022-08-12T06:04:22.883Z,2.45
2022-08-12T06:06:53.582Z,2.33
2022-08-12T06:09:22.844Z,2.50
2022-08-12T06:12:04.530Z,2.10
2022-08-12T06:14:36.989Z,2.20
2022-08-12T06:17:05.602Z,3.03
2022-08-12T06:20:25.859Z,2.05
2022-08-12T06:22:20.039Z,2.47
2022-08-12T06:24:48.627Z,2.17
2022-08-12T06:27:18.783Z,2.00
2022-08-12T06:30:09.525Z,2.15
2022-08-12T06:32:33.329Z,2.60
2022-08-12T06:35:26.534Z,2.22
2022-08-12T06:37:57.105Z,2.25
2022-08-12T06:40:44.032Z,1.90
2022-08-12T06:43:11.179Z,2.13
2022-08-12T06:45:46.786Z,2.35
2022-08-12T06:48:14.789Z,2.08
2022-08-12T06:50:42.451Z,2.28
2022-08-12T06:53:11.507Z,2.40
2022-08-12T06:55:39.381Z,2.55
2022-08-12T06:58:25.941Z,2.08
2022-08-12T07:00:54.045Z,2.22
2022-08-12T07:03:30.580Z,2.60
2022-08-12T07:05:59.769Z,2.70
2022-08-12T07:08:31.664Z,2.45
2022-08-12T07:11:03.853Z,2.10
2022-08-12T07:14:12.846Z,2.38
2022-08-12T07:16:50.482Z,2.30
2022-08-12T07:19:18.101Z,2.45
2022-08-12T07:21:59.888Z,2.60
2022-08-12T07:24:30.438Z,2.78
2022-08-12T07:26:57.497Z,2.25
2022-08-12T07:29:26.113Z,2.13
2022-08-12T07:32:13.400Z,2.08
2022-08-12T07:34:43.362Z,2.35
2022-08-12T07:37:13.680Z,2.00
2022-08-12T07:39:51.367Z,2.10
2022-08-12T07:42:28.540Z,1.83
2022-08-12T07:44:56.507Z,2.30
2022-08-12T07:47:24.280Z,1.92
2022-08-12T07:50:04.114Z,2.08
2022-08-12T07:52:38.586Z,2.40
2022-08-12T07:55:06.969Z,1.73
2022-08-12T07:57:34.489Z,1.98
2022-08-12T08:00:06.149Z,2.38
2022-08-12T08:02:37.672Z,1.77
2022-08-12T08:05:06.725Z,2.40
2022-08-12T08:07:33.692Z,2.28
2022-08-12T08:10:02.578Z,2.00
2022-08-12T08:12:49.140Z,1.95
2022-08-12T08:15:17.542Z,1.67
2022-08-12T08:17:59.802Z,1.75
2022-08-12T08:20:30.579Z,1.75
2022-08-12T08:22:59.064Z,2.17
2022-08-12T08:25:36.126Z,1.65
2022-08-12T08:28:12.812Z,1.73
2022-08-12T08:30:44.144Z,1.77
2022-08-12T08:33:23.593Z,1.45
2022-08-12T08:36:03.029Z,2.10
2022-08-12T08:38:32.816Z,1.63
2022-08-12T08:42:15.145Z,2.15
2022-08-12T08:44:12.083Z,1.65
2022-08-12T08:46:44.544Z,1.30
2022-08-12T08:49:13.099Z,1.63
2022-08-12T08:51:40.506Z,1.30
2022-08-12T08:54:08.814Z,1.70
2022-08-12T08:56:49.885Z,1.60
2022-08-12T08:59:20.369Z,1.70
2022-08-12T09:01:48.962Z,1.40
2022-08-12T09:05:07.237Z,1.35
2022-08-12T09:07:17.161Z,1.60
2022-08-12T09:10:03.539Z,1.42
2022-08-12T09:12:54.891Z,1.50
2022-08-12T09:15:35.489Z,1.58
2022-08-12T09:18:08.942Z,1.67
2022-08-12T09:20:38.647Z,1.70
2022-08-12T09:24:00.887Z,1.40
2022-08-12T09:26:04.581Z,1.42
2022-08-12T09:28:36.872Z,1.80
2022-08-12T09:32:06.296Z,1.55
2022-08-12T09:34:27.993Z,1.88
2022-08-12T09:37:00.964Z,1.13
2022-08-12T09:40:02.394Z,1.23
2022-08-12T09:42:43.544Z,1.25
2022-08-12T09:46:11.357Z,1.45
2022-08-12T09:48:20.042Z,1.48
2022-08-12T09:50:51.996Z,1.23
2022-08-12T09:53:36.587Z,1.35
2022-08-12T09:57:00.626Z,1.33
2022-08-12T09:59:08.789Z,1.20
2022-08-12T10:02:45.375Z,1.48
2022-08-12T10:04:27.830Z,1.27
2022-08-12T10:06:57.743Z,1.30
2022-08-12T10:09:28.857Z,1.00
2022-08-12T10:12:33.426Z,0.93
2022-08-12T10:15:01.882Z,1.35
2022-08-12T10:17:29.353Z,1.30
2022-08-12T10:19:59.793Z,1.00
2022-08-12T10:22:48.985Z,1.42
2022-08-12T10:26:18.533Z,1.38
2022-08-12T10:28:40.788Z,1.27
2022-08-12T10:31:16.269Z,1.15
2022-08-12T10:34:05.135Z,1.02
2022-08-12T10:36:40.536Z,1.42
2022-08-12T10:40:00.218Z,1.05
2022-08-12T10:42:28.982Z,1.13
2022-08-12T10:45:03.744Z,1.05
2022-08-12T10:48:07.550Z,1.40
2022-08-12T10:50:35.987Z,0.98
2022-08-12T10:53:19.455Z,1.08
2022-08-12T10:55:55.486Z,0.85
2022-08-12T10:58:28.385Z,1.40
2022-08-12T11:03:02.264Z,1.10
2022-08-12T11:04:27.372Z,1.05
2022-08-12T11:07:06.336Z,1.83
2022-08-12T11:09:55.599Z,0.88
2022-08-12T11:12:57.218Z,1.23
2022-08-12T11:15:18.637Z,1.20
2022-08-12T11:17:53.817Z,1.00
2022-08-12T11:20:24.183Z,1.10
2022-08-12T11:22:59.177Z,1.15
2022-08-12T11:25:42.261Z,1.17
2022-08-12T11:28:15.046Z,1.38
2022-08-12T11:30:43.814Z,1.00
2022-08-12T11:33:24.154Z,1.33
2022-08-12T11:36:14.922Z,0.90
2022-08-12T11:38:42.822Z,1.27
2022-08-12T11:41:10.045Z,1.17
2022-08-12T11:43:50.766Z,1.15
2022-08-12T11:46:24.085Z,1.10
2022-08-12T11:48:52.596Z,1.10
2022-08-12T11:51:20.867Z,1.13
2022-08-12T11:53:57.095Z,1.55
2022-08-12T11:56:38.255Z,0.85
2022-08-12T12:02:01.923Z,0.98
2022-08-12T12:04:32.238Z,1.38
2022-08-12T12:07:07.312Z,1.10
2022-08-12T12:09:52.026Z,0.90
2022-08-12T12:12:25.182Z,1.05
2022-08-12T12:14:54.907Z,1.35
2022-08-12T12:17:34.358Z,0.90
2022-08-12T12:20:11.534Z,1.00
2022-08-12T12:22:41.670Z,1.17
2022-08-12T12:25:13.699Z,0.90
2022-08-12T12:28:05.704Z,1.10
2022-08-12T12:30:37.417Z,1.00
2022-08-12T12:33:06.131Z,1.00
2022-08-12T12:36:18.754Z,0.93
2022-08-12T12:38:25.218Z,1.75
2022-08-12T12:40:53.226Z,1.08
2022-08-12T12:43:28.764Z,2.05
2022-08-12T12:46:08.955Z,1.10
2022-08-12T12:48:36.163Z,1.00
2022-08-12T12:51:22.240Z,0.80
2022-08-12T12:54:09.430Z,1.00
2022-08-12T12:56:43.111Z,1.20
2022-08-12T12:59:33.747Z,0.90
2022-08-12T13:02:02.023Z,0.80
2022-08-12T13:04:37.213Z,1.33
2022-08-12T13:07:05.953Z,1.15
2022-08-12T13:09:35.997Z,1.05
2022-08-12T13:12:10.459Z,1.10
2022-08-12T13:14:39.589Z,1.20
2022-08-12T13:17:09.692Z,1.08
2022-08-12T13:19:45.176Z,1.00
2022-08-12T13:22:19.990Z,0.85
2022-08-12T13:24:55.714Z,1.48
2022-08-12T13:27:35.020Z,0.88
2022-08-12T13:30:12.007Z,0.90
2022-08-12T13:32:57.467Z,1.10
2022-08-12T13:36:05.134Z,1.10
2022-08-12T13:38:38.822Z,0.90
2022-08-12T13:41:11.695Z,1.02
2022-08-12T13:43:40.245Z,1.02
2022-08-12T13:46:12.419Z,1.15
2022-08-12T13:48:45.095Z,1.02
2022-08-12T13:51:13.223Z,1.15
2022-08-12T13:53:59.212Z,1.10
2022-08-12T13:56:34.775Z,1.17
2022-08-12T13:59:08.002Z,1.20
2022-08-12T14:01:40.320Z,1.15
2022-08-12T14:04:11.975Z,1.00
2022-08-12T14:06:40.771Z,1.20
2022-08-12T14:09:17.694Z,1.35
2022-08-12T14:11:51.275Z,1.13
2022-08-12T14:14:31.784Z,1.20
2022-08-12T14:17:05.578Z,0.98
2022-08-12T14:19:39.276Z,1.60
2022-08-12T14:22:17.576Z,1.20
2022-08-12T14:24:44.443Z,0.93
2022-08-12T14:27:12.467Z,1.10
2022-08-12T14:30:05.863Z,1.80
2022-08-12T14:32:36.494Z,0.98
2022-08-12T14:35:09.705Z,1.20
2022-08-12T14:37:57.363Z,1.15
2022-08-12T14:40:29.694Z,1.10
2022-08-12T14:42:58.165Z,1.00
2022-08-12T14:45:45.502Z,0.80
2022-08-12T14:48:14.901Z,1.23
2022-08-12T14:51:02.847Z,1.02
2022-08-12T14:57:05.833Z,1.05
2022-08-12T14:59:26.775Z,1.10
2022-08-12T15:02:20.917Z,1.10
2022-08-12T15:05:03.537Z,1.00
2022-08-12T15:07:34.091Z,0.90
2022-08-12T15:10:32.417Z,0.88
2022-08-12T15:13:08.924Z,1.20
2022-08-12T15:15:43.974Z,0.90
2022-08-12T15:18:21.124Z,1.05
2022-08-12T15:20:49.880Z,1.00
2022-08-12T15:23:21.291Z,1.45
2022-08-12T15:28:29.845Z,1.23
2022-08-12T15:31:00.760Z,1.10
2022-08-12T15:33:45.164Z,1.30
2022-08-12T15:36:14.187Z,1.00
2022-08-12T15:38:46.533Z,0.90
2022-08-12T15:41:14.840Z,1.58
2022-08-12T15:44:17.161Z,1.05
2022-08-12T15:46:32.208Z,0.90
2022-08-12T15:48:59.571Z,0.85
2022-08-12T15:51:59.444Z,1.10
2022-08-12T15:54:33.569Z,1.00
2022-08-12T15:57:08.264Z,1.45
2022-08-12T16:00:00.609Z,1.05
2022-08-12T16:02:26.985Z,1.10
2022-08-12T16:04:54.485Z,1.10
2022-08-12T16:07:26.209Z,0.80
2022-08-12T16:10:06.141Z,0.88
2022-08-12T16:12:54.216Z,1.05
2022-08-12T16:15:26.411Z,1.00
2022-08-12T16:18:19.252Z,0.80
2022-08-12T16:20:46.665Z,1.10
2022-08-12T16:23:36.170Z,0.90
2022-08-12T16:26:14.505Z,1.33
2022-08-12T16:28:42.086Z,1.20
2022-08-12T16:31:12.450Z,0.77
2022-08-12T16:33:59.157Z,1.27
2022-08-12T16:36:29.331Z,1.33
2022-08-12T16:38:56.594Z,1.00
2022-08-12T16:41:24.295Z,1.05
2022-08-12T16:43:55.192Z,0.68
2022-08-12T16:46:32.238Z,1.05
2022-08-12T16:49:09.278Z,1.00
2022-08-12T16:51:46.711Z,0.75
2022-08-12T16:54:17.033Z,0.90
2022-08-12T16:56:50.807Z,1.00
2022-08-12T16:59:22.339Z,0.77
2022-08-12T17:01:49.665Z,1.83
2022-08-12T17:04:17.602Z,1.00
2022-08-12T17:06:47.901Z,1.00
2022-08-12T17:09:17.054Z,1.00
2022-08-12T17:11:49.287Z,1.02
2022-08-12T17:14:17.557Z,0.80
2022-08-12T17:16:52.369Z,1.33
2022-08-12T17:19:20.603Z,1.10
2022-08-12T17:22:09.817Z,0.93
2022-08-12T17:24:43.957Z,1.07
2022-08-12T17:27:19.127Z,1.00
2022-08-12T17:30:03.227Z,1.13
2022-08-12T17:32:33.664Z,1.05
2022-08-12T17:35:20.973Z,0.93
2022-08-12T17:37:48.771Z,0.80
2022-08-12T17:40:20.945Z,1.17
2022-08-12T17:43:52.045Z,1.08
2022-08-12T17:46:02.206Z,0.90
2022-08-12T17:48:35.096Z,1.30
2022-08-12T17:51:15.339Z,2.10
2022-08-12T17:54:10.513Z,1.58
2022-08-12T17:56:33.448Z,1.30
2022-08-12T17:59:07.540Z,1.48
2022-08-12T18:01:36.644Z,1.23
2022-08-12T18:04:21.595Z,1.80
2022-08-12T18:06:55.856Z,1.50
2022-08-12T18:09:24.623Z,1.20
2022-08-12T18:12:24.568Z,1.13
2022-08-12T18:15:47.736Z,1.27
2022-08-12T18:18:17.424Z,1.65
2022-08-12T18:20:47.023Z,1.30
2022-08-12T18:23:14.196Z,1.75
2022-08-12T18:26:14.243Z,1.33
2022-08-12T18:28:48.231Z,1.30
2022-08-12T18:31:43.964Z,1.45
2022-08-12T18:34:16.814Z,1.67
2022-08-12T18:36:50.204Z,1.20
2022-08-12T18:39:19.687Z,1.83
2022-08-12T18:41:48.439Z,1.25
2022-08-12T18:44:15.954Z,1.10
2022-08-12T18:46:55.380Z,1.10
2022-08-12T18:49:32.081Z,1.10
2022-08-12T18:52:05.720Z,0.95
2022-08-12T18:54:41.392Z,1.00
2022-08-12T18:57:45.758Z,1.20
2022-08-12T19:00:07.951Z,1.30
2022-08-12T19:02:40.103Z,1.33
2022-08-12T19:05:10.894Z,1.20
2022-08-12T19:07:49.367Z,1.00
2022-08-12T19:10:30.800Z,1.13
2022-08-12T19:13:23.344Z,1.13
2022-08-12T19:15:53.574Z,1.15
2022-08-12T19:18:22.491Z,1.73
2022-08-12T19:20:50.652Z,1.20
2022-08-12T19:23:20.964Z,1.45
2022-08-12T19:25:59.653Z,1.20
2022-08-12T19:28:34.877Z,1.13
2022-08-12T19:31:57.449Z,1.00
2022-08-12T19:37:38.748Z,1.23
2022-08-12T19:40:31.081Z,1.00
2022-08-12T19:43:17.279Z,0.90
2022-08-12T19:45:56.793Z,2.35
2022-08-12T19:48:30.451Z,1.40
2022-08-12T19:50:58.013Z,1.40
2022-08-12T19:53:27.614Z,1.30
2022-08-12T19:55:57.298Z,1.23
2022-08-12T19:58:25.831Z,1.40
2022-08-12T20:00:55.637Z,1.30
2022-08-12T20:03:38.006Z,0.80
2022-08-12T20:06:14.115Z,1.38
2022-08-12T20:08:48.720Z,1.52
2022-08-12T20:12:11.829Z,1.50
2022-08-12T20:14:05.812Z,0.98
2022-08-12T20:16:54.434Z,1.08
2022-08-12T20:20:16.528Z,1.13
2022-08-12T20:22:29.587Z,1.27
2022-08-12T20:25:10.499Z,1.05
2022-08-12T20:28:02.991Z,1.20
2022-08-12T20:30:38.150Z,1.00
2022-08-12T20:33:22.995Z,1.60
2022-08-12T20:41:17.356Z,1.38
2022-08-12T20:43:50.042Z,1.35
2022-08-12T20:46:19.387Z,1.83
2022-08-12T20:48:54.845Z,1.45
2022-08-12T20:51:27.618Z,1.13
2022-08-12T20:53:58.725Z,1.35
2022-08-12T20:56:35.352Z,1.42
2022-08-12T20:59:10.281Z,1.17
2022-08-12T21:01:46.359Z,1.50
2022-08-12T21:04:35.936Z,1.25
2022-08-12T21:07:09.266Z,1.02
2022-08-12T21:09:41.509Z,1.58
2022-08-12T21:12:28.284Z,1.48
2022-08-12T21:15:17.555Z,1.55
2022-08-12T21:18:10.959Z,1.08
2022-08-12T21:20:55.862Z,1.38
2022-08-12T21:23:23.817Z,1.48
2022-08-12T21:25:56.805Z,1.30
2022-08-12T21:28:31.295Z,1.20
2022-08-12T21:32:35.510Z,1.25
2022-08-12T21:34:07.374Z,0.95
2022-08-12T21:36:43.394Z,1.00
2022-08-12T21:39:35.909Z,1.40
2022-08-12T21:42:07.777Z,1.48
2022-08-12T21:45:46.868Z,1.38
2022-08-12T21:47:24.776Z,1.52
2022-08-12T21:50:03.950Z,1.15
2022-08-12T21:52:41.155Z,0.98
2022-08-12T21:55:19.506Z,1.58
2022-08-12T21:57:53.802Z,1.30
2022-08-12T22:00:33.015Z,1.33
2022-08-12T22:04:04.218Z,1.05
2022-08-12T22:06:20.374Z,1.23
2022-08-12T22:08:57.585Z,1.80
2022-08-12T22:11:41.975Z,1.55
2022-08-12T22:14:21.337Z,1.55
2022-08-12T22:16:50.974Z,2.35
2022-08-12T22:19:20.881Z,0.98
2022-08-12T22:21:53.375Z,1.40
2022-08-12T22:24:26.880Z,1.25
2022-08-12T22:27:16.040Z,1.58
2022-08-12T22:30:16.551Z,1.23
2022-08-12T22:32:49.880Z,1.15
2022-08-12T22:35:55.616Z,1.17
2022-08-12T22:38:24.938Z,1.60
2022-08-12T22:41:01.842Z,0.93
2022-08-12T22:44:00.035Z,1.67
2022-08-12T22:46:52.561Z,1.23
2022-08-12T22:49:36.589Z,1.20
2022-08-12T22:52:11.652Z,1.50
2022-08-12T22:54:46.397Z,1.05
2022-08-12T22:57:49.330Z,1.40
2022-08-12T23:00:24.313Z,0.90
2022-08-12T23:03:00.369Z,1.05
2022-08-12T23:05:37.036Z,1.13
2022-08-12T23:08:24.153Z,1.20
2022-08-12T23:10:59.186Z,1.33
2022-08-12T23:13:44.876Z,1.45
2022-08-12T23:16:28.003Z,1.25
2022-08-12T23:19:01.430Z,1.35
2022-08-12T23:21:40.292Z,1.63
2022-08-12T23:24:17.087Z,1.00
2022-08-12T23:27:04.211Z,1.50
2022-08-12T23:29:43.272Z,1.35
2022-08-12T23:32:13.494Z,2.15
2022-08-12T23:35:02.654Z,1.20
2022-08-12T23:37:46.533Z,1.38
2022-08-12T23:40:17.975Z,1.23
2022-08-12T23:42:46.902Z,2.33
2022-08-12T23:45:20.349Z,1.45
2022-08-12T23:48:00.087Z,1.17
2022-08-12T23:50:33.852Z,1.80
2022-08-12T23:53:06.718Z,1.40
2022-08-12T23:55:50.615Z,1.35
2022-08-12T23:58:25.627Z,1.10
